Aeroporto :
LOGIN :

Iscrizione | Disclaimer

   EN    FR    IT 

 










Sommario :    VFR   VFR Marginale   IFR   IFR Intensivo   IFR Molto Intensivo
Visibilità : 
Base nubi : 
>= 8 km
>= 3000ft
5 / 8 km
1000 / 3000 ft
1500m / 5 km
500 / 1000 ft
800 / 1500m
200 / 500 ft
< 800m
< 200 ft
Simboli :   Temporali  Nebbia  Neve Forte  Precipitazioni Forti  Vento > 20 kt
SIGMETs :   Varie  Temporali  Ghiacco  Turbolenza  Onda orograficha  Ceneri Vulcaniche






- Altitudine del aeroporto : 138 ft
- Codice IATA : RLG


ETNL - Rostock Laage

ULTIMO METAR :
  • 280920Z 28014KT 9999 FEW020 SCT040 BKN065 05/02 Q1009 BLU BLU+ TEMPO GRN

METARs OBSOLETI :
  • 280907Z 28013KT 9999 FEW010 FEW015CB BKN025 03/02 Q1009 BLU BLU+ TEMPO GRN
  • 280855Z 28016KT 8000 -SHRA FEW009 BKN013CB BKN030 03/01 Q1008 GRN BLU+ TEMPO GRN
  • 280845Z 27012KT 6000 -SHRA BKN015CB BKN025 04/01 Q1009 WHT BLU+ TEMPO GRN
  • 280820Z 26012KT 9999 SCT020 BKN025 03/01 Q1008 BLU BLU+ TEMPO GRN
  • 280745Z 25010KT 9999 BKN010 SCT020 03/01 Q1008 GRN BLU+ TEMPO GRN
  • 280720Z 25008KT 9999 SCT011 SCT035 02/00 Q1008 BLU+BLU+ TEMPO GRN

TAF TAF ETNL
Valido dal 28 a 09 ore il 28 a 18 ore UTC


280825Z 2809/2818 27012G22KT 9999 NSW FEW010 SCT030
TEMPO 2809/2812 27015G25KT 4000 SHRAGS BKN010CB
TEMPO 2812/2818 25015G25KT 9999 NSW BKN030 BY ETGL



MetMap, La meteo Aeronautica in un colpo d'occhio ! - Copyright ORBIFLY Dicembre 2007 - Disclaimer

ORBIFLY MET'MAP TEAM :

Programmazione e sviluppo : Alexandra Zaïnal
Concezione : Baudouin d'Aumeries
Aiuto per la programmazione : Marc-Olivier Méhu
Supporto tecnico e logistico : Manuel Goepfert
Aiuto per la traduzione : Arnaldo La Scala

Contatto : metmap@orbifly.com




FONTI E CREDITI :

   NOAA